Aérodrome :
LOGIN :

S'inscrire | Disclaimer

   EN    FR    IT 

 










Légende :    VFR   VFR Marginal   IFR   IFR Intensif   IFR Très Intensif
Visi : 
Plafond : 
>= 8 km
>= 3000ft
5 à 8 km
1000 à 3000 ft
1500m à 5 km
500 à 1000 ft
800 à 1500m
200 à 500 ft
< 800m
< 200 ft
Symboles :   Orages  Brouillard  Fortes neiges  Fortes précipitations  Vent > 20 kt
SIGMETs :   Divers  Orages  Givrage  Turbulence  Onde Orograph.  Cendres Volcan.







- Altitude de l'aérodrome : 423 ft
- Code IATA : PIS
- Voir les cartes d'approche


LFBI - Poitiers

DERNIER METAR :
  • 181030Z AUTO 17009KT 140V200 CAVOK 20/14 Q1012 NOSIG

METARs EXPIRÉS :
  • 181000Z AUTO 17006KT CAVOK 18/13 Q1012 NOSIG
  • 180930Z AUTO 17005KT 130V200 CAVOK 18/13 Q1012 NOSIG
  • 180900Z AUTO 17005KT CAVOK 18/13 Q1012 NOSIG
  • 180830Z AUTO 16005KT 130V190 CAVOK 17/13 Q1012 NOSIG

TAF TAF LFBI
Valide du 18 à 06h jusqu'au 19 à 06h UTC


180500Z 1806/1906 16008KT CAVOK
PROB30
TEMPO 1806/1809 -RA FEW070CB
TEMPO 1819/1823 VRB10G25KT 4000 SHRA BKN040 FEW040CB
BECMG 1823/1901 BKN015
PROB30
TEMPO 1823/1904 3000 -DZ BKN010
Pas de NOTAMs connus pour ce terrain.
1 SIGMET publié pour la FIR Bordeaux (LFBB) :
 
Orages noyés dans la masse
LFBB SIGMET 1 VALID 181100/181300 LFPW
LFBB BORDEAUX FIR/UIR EMBD TS OBS AT 1100Z S OF N4245 AND W OF E00145 TOP FL360 MOV NE 5KT NC=



MET'MAP, la Météo Aéronautique d'un coup d'oeil ! - Copyright ORBIFLY Décembre 2007 - Disclaimer

ORBIFLY MET'MAP TEAM :

Programmation & Développement : Alexandra Zaïnal
Conception & Développement : Baudouin d'Aumeries
Co-Programmation & Développement : Marc-Olivier Méhu
Soutien technique & logistique : Manuel Goepfert

Contact : metmap@orbifly.com




SOURCES & CREDITS :

   NOAA